Time;durP1;ratioP1;P1;durP2;ratioP2;P2;SDS_P1;SDS_P2;PMS_P1;PMS_P2;Temp;Humidity;BMP_temperature;BMP_pressure;BME280_temperature;BME280_humidity;BME280_pressure;Samples;Min_cycle;Max_cycle;Signal;HPM_P1;HPM_P2
2023/09/20 00:01:51;;;;;;;11.45;6.18;;;;;;;;;;4396393;32;317795;-85
2023/09/20 00:04:20;;;;;;;10.00;6.55;;;;;;;;;;4411992;32;317886;-90
2023/09/20 00:06:47;;;;;;;10.27;6.47;;;;;;;;;;4403597;32;318128;-84
2023/09/20 00:09:17;;;;;;;8.68;6.03;;;;;;;;;;4412056;32;317791;-88
2023/09/20 00:11:46;;;;;;;9.13;5.72;;;;;;;;;;4400275;32;316742;-86
2023/09/20 00:14:14;;;;;;;7.82;5.90;;;;;;;;;;4413226;32;316841;-86
2023/09/20 00:16:41;;;;;;;6.57;5.72;;;;;;;;;;4403191;32;316838;-87
2023/09/20 00:19:08;;;;;;;8.90;6.45;;;;;;;;;;4413257;32;316797;-88
2023/09/20 00:21:37;;;;;;;6.35;5.60;;;;;;;;;;4404121;32;316679;-89
2023/09/20 00:24:05;;;;;;;7.72;5.87;;;;;;;;;;4411089;32;316439;-84
2023/09/20 00:26:33;;;;;;;13.85;6.15;;;;;;;;;;4402390;32;316898;-89
2023/09/20 00:29:04;;;;;;;7.05;4.93;;;;;;;;;;4411880;32;317785;-85
2023/09/20 00:31:32;;;;;;;7.60;5.37;;;;;;;;;;4401545;32;317753;-89
2023/09/20 00:34:03;;;;;;;7.87;5.22;;;;;;;;;;4410921;32;316731;-85
2023/09/20 00:36:30;;;;;;;10.18;5.55;;;;;;;;;;4399748;32;316893;-85
2023/09/20 00:38:59;;;;;;;7.70;5.75;;;;;;;;;;4412687;32;317895;-89
2023/09/20 00:41:26;;;;;;;7.55;5.30;;;;;;;;;;4414840;32;317443;-84
2023/09/20 00:43:54;;;;;;;9.35;5.10;;;;;;;;;;4398738;32;415604;-85
2023/09/20 00:46:21;;;;;;;6.85;5.18;;;;;;;;;;4416743;32;316754;-87
2023/09/20 00:48:53;;;;;;;7.30;4.75;;;;;;;;;;4404320;32;340300;-84
2023/09/20 00:51:22;;;;;;;5.00;4.40;;;;;;;;;;4416627;32;317157;-89
2023/09/20 00:53:51;;;;;;;5.03;4.20;;;;;;;;;;4401579;32;317334;-86
2023/09/20 00:56:20;;;;;;;11.48;4.85;;;;;;;;;;4415079;32;316788;-84
2023/09/20 00:58:49;;;;;;;5.90;4.50;;;;;;;;;;4403559;32;318024;-84
2023/09/20 01:01:17;;;;;;;6.78;4.87;;;;;;;;;;4416238;32;332973;-88
2023/09/20 01:03:47;;;;;;;6.87;4.85;;;;;;;;;;4404466;32;316960;-84
2023/09/20 01:06:15;;;;;;;4.75;3.95;;;;;;;;;;4411927;32;316704;-89
2023/09/20 01:08:42;;;;;;;11.70;4.90;;;;;;;;;;4402366;32;317121;-86
2023/09/20 01:11:10;;;;;;;6.68;4.82;;;;;;;;;;4414669;32;318479;-88
2023/09/20 01:13:40;;;;;;;8.35;4.53;;;;;;;;;;4404541;32;316938;-87
2023/09/20 01:16:09;;;;;;;6.60;4.28;;;;;;;;;;4414724;32;331097;-89
2023/09/20 01:18:36;;;;;;;7.45;4.03;;;;;;;;;;4403497;32;317073;-87
2023/09/20 01:21:04;;;;;;;8.02;4.47;;;;;;;;;;4414813;32;317421;-84
2023/09/20 01:23:34;;;;;;;11.48;4.32;;;;;;;;;;4404388;32;316870;-89
2023/09/20 01:26:03;;;;;;;9.20;4.35;;;;;;;;;;4411310;32;317945;-87
2023/09/20 01:28:31;;;;;;;5.95;4.70;;;;;;;;;;4405136;32;316686;-85
2023/09/20 01:31:00;;;;;;;6.35;4.43;;;;;;;;;;4412291;32;316765;-88
2023/09/20 01:33:28;;;;;;;7.72;4.37;;;;;;;;;;4407173;32;317038;-86
2023/09/20 01:35:55;;;;;;;7.12;4.72;;;;;;;;;;4409225;32;316547;-85
2023/09/20 01:38:26;;;;;;;5.87;4.40;;;;;;;;;;4413919;32;316800;-88
2023/09/20 01:40:56;;;;;;;10.30;4.78;;;;;;;;;;4400925;32;416091;-89
2023/09/20 01:43:24;;;;;;;5.60;4.22;;;;;;;;;;4415911;32;318020;-85
2023/09/20 01:45:53;;;;;;;6.60;4.95;;;;;;;;;;4402315;32;323324;-86
2023/09/20 01:48:21;;;;;;;8.18;5.03;;;;;;;;;;4414267;32;316975;-83
2023/09/20 01:50:50;;;;;;;6.53;4.93;;;;;;;;;;4403514;32;316828;-84
2023/09/20 01:53:17;;;;;;;8.25;5.80;;;;;;;;;;4412395;32;317602;-84
2023/09/20 01:55:44;;;;;;;7.22;5.12;;;;;;;;;;4399391;32;317056;-88
2023/09/20 01:58:13;;;;;;;7.82;5.15;;;;;;;;;;4414557;32;316740;-84
2023/09/20 02:00:42;;;;;;;13.02;5.40;;;;;;;;;;4401592;32;317149;-86
2023/09/20 02:03:14;;;;;;;6.95;4.47;;;;;;;;;;4415202;32;317985;-88
2023/09/20 02:05:42;;;;;;;8.50;4.62;;;;;;;;;;4400883;32;320008;-86
2023/09/20 02:08:09;;;;;;;6.37;3.80;;;;;;;;;;4414366;32;316804;-84
2023/09/20 02:10:38;;;;;;;5.05;4.00;;;;;;;;;;4403550;32;316714;-89
2023/09/20 02:13:06;;;;;;;12.18;4.50;;;;;;;;;;4413564;32;317094;-85
2023/09/20 02:15:36;;;;;;;5.55;4.12;;;;;;;;;;4405245;32;318032;-87
2023/09/20 02:18:05;;;;;;;4.32;3.10;;;;;;;;;;4409477;32;316971;-90
2023/09/20 02:20:36;;;;;;;6.85;3.12;;;;;;;;;;4400989;32;316999;-88
2023/09/20 02:23:05;;;;;;;12.05;3.47;;;;;;;;;;4413953;32;316821;-86
2023/09/20 02:25:32;;;;;;;5.93;3.92;;;;;;;;;;4403044;32;317972;-90
2023/09/20 02:28:01;;;;;;;11.57;3.53;;;;;;;;;;4411093;32;316860;-90
2023/09/20 02:30:32;;;;;;;4.55;3.90;;;;;;;;;;4399510;32;317720;-90
2023/09/20 02:33:05;;;;;;;5.37;3.67;;;;;;;;;;4413962;32;316769;-90
2023/09/20 02:35:33;;;;;;;6.10;3.45;;;;;;;;;;4400748;32;316695;-87
2023/09/20 02:38:04;;;;;;;9.82;4.37;;;;;;;;;;4410479;32;316703;-90
2023/09/20 02:40:33;;;;;;;10.95;4.28;;;;;;;;;;4403428;32;316581;-90
2023/09/20 02:43:00;;;;;;;4.75;3.33;;;;;;;;;;4412341;32;317769;-90
2023/09/20 02:45:29;;;;;;;9.05;4.30;;;;;;;;;;4403426;32;316602;-90
2023/09/20 02:47:57;;;;;;;7.07;3.80;;;;;;;;;;4411298;32;316876;-90
2023/09/20 02:50:26;;;;;;;10.80;3.58;;;;;;;;;;4413548;32;316712;-90
2023/09/20 02:52:55;;;;;;;8.23;3.72;;;;;;;;;;4401227;32;417447;-90
2023/09/20 02:55:24;;;;;;;7.37;3.65;;;;;;;;;;4414083;32;346574;-89
2023/09/20 02:57:54;;;;;;;4.07;3.45;;;;;;;;;;4399676;32;317023;-90
2023/09/20 03:00:27;;;;;;;8.45;4.07;;;;;;;;;;4414656;32;316526;-89
2023/09/20 03:02:57;;;;;;;16.35;5.60;;;;;;;;;;4401447;32;415765;-90
2023/09/20 03:05:29;;;;;;;8.93;5.22;;;;;;;;;;4414390;32;317863;-90
2023/09/20 03:07:57;;;;;;;13.68;5.50;;;;;;;;;;4396751;32;415923;-84
2023/09/20 03:10:27;;;;;;;8.73;4.70;;;;;;;;;;4411682;32;318200;-84
2023/09/20 03:12:57;;;;;;;11.77;4.93;;;;;;;;;;4400187;32;415986;-88
2023/09/20 03:15:26;;;;;;;15.13;5.37;;;;;;;;;;4413525;32;317863;-84
2023/09/20 03:17:56;;;;;;;8.65;4.90;;;;;;;;;;4399869;32;388197;-88
2023/09/20 03:20:24;;;;;;;5.20;4.20;;;;;;;;;;4412912;32;316981;-84
2023/09/20 03:22:55;;;;;;;10.05;5.18;;;;;;;;;;4403562;32;316688;-86
2023/09/20 03:25:22;;;;;;;11.63;4.55;;;;;;;;;;4413351;32;318009;-84
2023/09/20 03:27:50;;;;;;;7.47;5.28;;;;;;;;;;4398853;32;318045;-86
2023/09/20 03:30:20;;;;;;;7.50;4.65;;;;;;;;;;4413090;32;316846;-88
2023/09/20 03:32:47;;;;;;;7.80;5.70;;;;;;;;;;4403815;32;316988;-86
2023/09/20 03:35:15;;;;;;;7.78;4.93;;;;;;;;;;4414801;32;316925;-87
2023/09/20 03:37:43;;;;;;;7.10;5.57;;;;;;;;;;4401666;32;316839;-87
2023/09/20 03:40:17;;;;;;;14.05;5.43;;;;;;;;;;4413707;32;316741;-87
2023/09/20 03:42:44;;;;;;;8.02;5.05;;;;;;;;;;4403259;32;317761;-87
2023/09/20 03:45:14;;;;;;;8.88;5.93;;;;;;;;;;4411850;32;316745;-88
2023/09/20 03:47:41;;;;;;;11.00;6.37;;;;;;;;;;4400416;32;316855;-87
2023/09/20 03:50:10;;;;;;;10.90;5.60;;;;;;;;;;4413356;32;317854;-86
2023/09/20 03:52:38;;;;;;;14.20;5.82;;;;;;;;;;4400557;32;317574;-84
2023/09/20 03:55:07;;;;;;;7.45;5.05;;;;;;;;;;4412654;32;317723;-84
2023/09/20 03:57:37;;;;;;;13.93;6.00;;;;;;;;;;4402971;32;317063;-87
2023/09/20 04:00:07;;;;;;;9.80;5.65;;;;;;;;;;4409447;32;317747;-84
2023/09/20 04:02:35;;;;;;;17.98;5.57;;;;;;;;;;4402256;32;316897;-88
2023/09/20 04:05:11;;;;;;;8.68;5.57;;;;;;;;;;4414236;32;317914;-86
2023/09/20 04:07:40;;;;;;;10.50;5.70;;;;;;;;;;4402295;32;316771;-87
2023/09/20 04:10:09;;;;;;;9.77;5.15;;;;;;;;;;4413216;32;317850;-85
2023/09/20 04:12:38;;;;;;;8.90;5.07;;;;;;;;;;4399831;32;316826;-84
2023/09/20 04:15:07;;;;;;;8.82;5.47;;;;;;;;;;4412245;32;316662;-84
2023/09/20 04:17:35;;;;;;;11.73;5.65;;;;;;;;;;4405764;32;316994;-86
2023/09/20 04:20:06;;;;;;;9.00;5.12;;;;;;;;;;4413391;32;317740;-84
2023/09/20 04:22:34;;;;;;;14.35;5.03;;;;;;;;;;4407124;32;316595;-85
2023/09/20 04:25:02;;;;;;;12.73;5.15;;;;;;;;;;4416073;32;317674;-84
2023/09/20 04:27:29;;;;;;;8.52;5.12;;;;;;;;;;4401415;32;317867;-87
2023/09/20 04:29:58;;;;;;;6.60;4.60;;;;;;;;;;4414249;32;316829;-84
2023/09/20 04:32:26;;;;;;;16.55;5.68;;;;;;;;;;4416071;32;316721;-87
2023/09/20 04:34:53;;;;;;;9.30;5.65;;;;;;;;;;4401456;32;417316;-88
2023/09/20 04:37:22;;;;;;;9.73;6.60;;;;;;;;;;4416536;32;316960;-86
2023/09/20 04:39:50;;;;;;;15.02;6.32;;;;;;;;;;4402916;32;316779;-87
2023/09/20 04:42:18;;;;;;;12.48;8.00;;;;;;;;;;4415206;32;318147;-85
2023/09/20 04:44:46;;;;;;;17.15;9.18;;;;;;;;;;4402673;32;317697;-88
2023/09/20 04:47:16;;;;;;;23.92;9.00;;;;;;;;;;4416181;32;318137;-84
2023/09/20 04:49:44;;;;;;;17.67;8.43;;;;;;;;;;4400470;32;317853;-83
2023/09/20 04:52:15;;;;;;;22.25;8.60;;;;;;;;;;4413749;32;317716;-88
2023/09/20 04:54:44;;;;;;;10.68;6.12;;;;;;;;;;4403707;32;318150;-84
2023/09/20 04:57:13;;;;;;;12.57;6.28;;;;;;;;;;4412992;32;317706;-84
2023/09/20 04:59:41;;;;;;;20.27;7.50;;;;;;;;;;4401735;32;317812;-88
2023/09/20 05:02:09;;;;;;;25.60;14.40;;;;;;;;;;4415304;32;317839;-85
2023/09/20 05:04:38;;;;;;;27.37;18.80;;;;;;;;;;4403317;32;318808;-89
2023/09/20 05:07:06;;;;;;;36.58;30.62;;;;;;;;;;4415039;32;318925;-86
2023/09/20 05:09:34;;;;;;;38.05;27.25;;;;;;;;;;4405865;32;319103;-88
2023/09/20 05:12:03;;;;;;;24.85;18.98;;;;;;;;;;4408202;32;318980;-89
2023/09/20 05:14:30;;;;;;;22.58;13.48;;;;;;;;;;4405136;32;321384;-88
2023/09/20 05:16:58;;;;;;;15.38;9.10;;;;;;;;;;4415633;32;318873;-84
2023/09/20 05:19:25;;;;;;;15.82;8.82;;;;;;;;;;4415331;32;317771;-85
2023/09/20 05:21:54;;;;;;;14.50;8.55;;;;;;;;;;4397713;32;417069;-89
2023/09/20 05:24:21;;;;;;;25.33;8.00;;;;;;;;;;4412934;32;317912;-84
2023/09/20 05:26:49;;;;;;;10.98;7.43;;;;;;;;;;4405067;32;318118;-85
2023/09/20 05:29:18;;;;;;;20.15;10.30;;;;;;;;;;4413830;32;317604;-84
2023/09/20 05:31:46;;;;;;;22.50;9.93;;;;;;;;;;4399142;32;318937;-88
2023/09/20 05:34:13;;;;;;;17.58;9.93;;;;;;;;;;4414793;32;317736;-87
2023/09/20 05:36:43;;;;;;;18.80;11.32;;;;;;;;;;4402912;32;317722;-87
2023/09/20 05:39:12;;;;;;;24.25;10.20;;;;;;;;;;4414793;32;319104;-88
2023/09/20 05:41:40;;;;;;;20.40;9.57;;;;;;;;;;4400323;32;318767;-86
2023/09/20 05:44:10;;;;;;;20.10;9.93;;;;;;;;;;4414823;32;317562;-84
2023/09/20 05:46:37;;;;;;;18.83;8.93;;;;;;;;;;4396571;32;317880;-87
2023/09/20 05:49:04;;;;;;;12.37;7.95;;;;;;;;;;4413659;32;317685;-86
2023/09/20 05:51:32;;;;;;;14.00;8.60;;;;;;;;;;4405034;32;317619;-84
2023/09/20 05:53:59;;;;;;;13.80;8.25;;;;;;;;;;4412430;32;317834;-83
2023/09/20 05:56:28;;;;;;;14.85;8.75;;;;;;;;;;4413976;32;318001;-83
2023/09/20 05:58:55;;;;;;;13.88;8.48;;;;;;;;;;4401955;32;417377;-83
2023/09/20 06:01:23;;;;;;;19.30;10.60;;;;;;;;;;4413142;32;317956;-89
2023/09/20 06:03:55;;;;;;;13.07;9.77;;;;;;;;;;4397885;32;318749;-83
2023/09/20 06:06:23;;;;;;;16.75;9.30;;;;;;;;;;4414210;32;317711;-87
2023/09/20 06:08:51;;;;;;;21.33;9.00;;;;;;;;;;4402380;32;323748;-88
2023/09/20 06:11:19;;;;;;;17.55;10.00;;;;;;;;;;4413707;32;317702;-89
2023/09/20 06:13:50;;;;;;;23.80;12.03;;;;;;;;;;4399811;32;318949;-88
2023/09/20 06:16:18;;;;;;;20.12;11.70;;;;;;;;;;4412131;32;317495;-88
2023/09/20 06:18:46;;;;;;;21.15;11.25;;;;;;;;;;4403439;32;318644;-90
2023/09/20 06:21:14;;;;;;;21.83;11.15;;;;;;;;;;4414920;32;319102;-88
2023/09/20 06:23:42;;;;;;;23.98;8.80;;;;;;;;;;4403524;32;319130;-84
2023/09/20 06:26:10;;;;;;;16.83;7.72;;;;;;;;;;4411561;32;355987;-88
2023/09/20 06:28:40;;;;;;;11.50;6.82;;;;;;;;;;4404438;32;318033;-89
2023/09/20 06:31:12;;;;;;;16.95;7.32;;;;;;;;;;4414674;32;317866;-88
2023/09/20 06:33:40;;;;;;;10.38;6.90;;;;;;;;;;4401737;32;317821;-89
2023/09/20 06:36:08;;;;;;;7.78;6.40;;;;;;;;;;4414034;32;317763;-89
2023/09/20 06:38:35;;;;;;;15.02;5.47;;;;;;;;;;4403098;32;316694;-85
2023/09/20 06:41:04;;;;;;;12.43;5.53;;;;;;;;;;4412538;32;346121;-89
2023/09/20 06:43:31;;;;;;;9.00;5.45;;;;;;;;;;4399497;32;339030;-89
2023/09/20 06:46:02;;;;;;;17.25;7.12;;;;;;;;;;4411066;32;316698;-87
2023/09/20 06:48:31;;;;;;;15.75;6.45;;;;;;;;;;4403136;32;318314;-91
2023/09/20 06:51:00;;;;;;;9.00;6.18;;;;;;;;;;4412971;32;317694;-87
2023/09/20 06:53:27;;;;;;;17.77;6.90;;;;;;;;;;4413907;32;316958;-85
2023/09/20 06:55:55;;;;;;;8.32;5.78;;;;;;;;;;4395592;32;416990;-87
2023/09/20 06:58:24;;;;;;;13.25;6.35;;;;;;;;;;4412816;32;316662;-84
2023/09/20 07:00:52;;;;;;;13.20;5.30;;;;;;;;;;4401569;32;317831;-84
2023/09/20 07:03:20;;;;;;;14.15;6.65;;;;;;;;;;4413883;32;317891;-88
2023/09/20 07:05:50;;;;;;;14.82;6.20;;;;;;;;;;4398444;32;317939;-87
2023/09/20 07:08:21;;;;;;;9.43;6.25;;;;;;;;;;4413466;32;317885;-88
2023/09/20 07:10:50;;;;;;;11.55;6.22;;;;;;;;;;4401820;32;316766;-90
2023/09/20 07:13:19;;;;;;;12.48;6.47;;;;;;;;;;4411928;32;317680;-91
2023/09/20 07:15:47;;;;;;;12.37;6.40;;;;;;;;;;4399738;32;318346;-89
2023/09/20 07:18:15;;;;;;;15.88;6.37;;;;;;;;;;4413180;32;317763;-88
2023/09/20 07:20:44;;;;;;;11.83;6.30;;;;;;;;;;4397477;32;346927;-87
2023/09/20 07:23:15;;;;;;;14.23;6.53;;;;;;;;;;4413682;32;317647;-87
2023/09/20 07:25:43;;;;;;;14.35;6.32;;;;;;;;;;4402075;32;346391;-88
2023/09/20 07:28:10;;;;;;;13.27;6.22;;;;;;;;;;4410129;32;316770;-91
2023/09/20 07:30:44;;;;;;;8.90;6.00;;;;;;;;;;4401903;32;318186;-90
2023/09/20 07:33:12;;;;;;;12.57;6.45;;;;;;;;;;4413117;32;316674;-89
2023/09/20 07:35:48;;;;;;;13.65;5.85;;;;;;;;;;4399222;32;317933;-88
2023/09/20 07:38:25;;;;;;;8.40;5.85;;;;;;;;;;4412089;32;337509;-88
2023/09/20 07:40:53;;;;;;;9.00;6.37;;;;;;;;;;4397462;32;415585;-88
2023/09/20 07:43:21;;;;;;;7.15;4.87;;;;;;;;;;4413730;32;316696;-92
2023/09/20 07:45:50;;;;;;;8.88;5.53;;;;;;;;;;4400229;32;316649;-91
2023/09/20 07:48:21;;;;;;;7.68;5.55;;;;;;;;;;4412691;32;316729;-91
2023/09/20 07:50:50;;;;;;;10.82;5.90;;;;;;;;;;4399990;32;316768;-91
2023/09/20 07:53:21;;;;;;;11.20;6.28;;;;;;;;;;4412565;32;317561;-86
2023/09/20 07:56:00;;;;;;;9.27;6.50;;;;;;;;;;4399286;32;318002;-83
2023/09/20 07:58:28;;;;;;;11.12;5.00;;;;;;;;;;4412173;32;316787;-83
2023/09/20 08:00:57;;;;;;;10.75;5.72;;;;;;;;;;4412252;32;318170;-91
2023/09/20 08:03:31;;;;;;;10.10;6.18;;;;;;;;;;4413016;32;316744;-92
2023/09/20 08:05:59;;;;;;;11.40;5.47;;;;;;;;;;4397492;32;387747;-85
2023/09/20 08:08:28;;;;;;;7.97;5.37;;;;;;;;;;4411983;32;317971;-86
2023/09/20 08:10:55;;;;;;;9.80;5.53;;;;;;;;;;4397935;32;415314;-86
2023/09/20 08:13:23;;;;;;;5.97;5.22;;;;;;;;;;4410952;32;316695;-89
2023/09/20 08:15:50;;;;;;;7.50;4.87;;;;;;;;;;4401157;32;316725;-90
2023/09/20 08:21:03;;;;;;;9.38;4.78;;;;;;;;;;4399975;32;387745;-86
2023/09/20 09:02:13;;;;;;;10.50;5.65;;;;;;;;;;4397758;32;390663;-91
2023/09/20 09:04:42;;;;;;;8.73;4.97;;;;;;;;;;4402698;32;318275;-89
2023/09/20 09:07:10;;;;;;;7.15;5.10;;;;;;;;;;4414044;32;316359;-87
2023/09/20 09:09:38;;;;;;;9.02;4.55;;;;;;;;;;4404805;32;316952;-88
2023/09/20 09:12:11;;;;;;;8.95;5.40;;;;;;;;;;4412570;32;317007;-87
2023/09/20 09:14:39;;;;;;;6.47;5.15;;;;;;;;;;4404923;32;316619;-85
2023/09/20 09:17:07;;;;;;;9.07;5.75;;;;;;;;;;4413882;32;316484;-90
2023/09/20 09:19:36;;;;;;;9.15;5.47;;;;;;;;;;4403822;32;316711;-88
2023/09/20 09:22:04;;;;;;;13.18;6.15;;;;;;;;;;4412214;32;316642;-88
2023/09/20 09:24:43;;;;;;;11.23;5.82;;;;;;;;;;4404466;32;317568;-90
2023/09/20 09:27:14;;;;;;;7.82;5.55;;;;;;;;;;4414639;32;318247;-89
2023/09/20 09:29:43;;;;;;;8.75;5.18;;;;;;;;;;4404396;32;316693;-90
2023/09/20 09:32:11;;;;;;;10.10;6.05;;;;;;;;;;4414255;32;316640;-91
2023/09/20 09:34:41;;;;;;;8.50;6.32;;;;;;;;;;4403584;32;317698;-91
2023/09/20 09:37:09;;;;;;;7.15;5.10;;;;;;;;;;4415495;32;317107;-90
2023/09/20 09:39:36;;;;;;;14.70;5.37;;;;;;;;;;4404102;32;316807;-90
2023/09/20 09:42:04;;;;;;;7.03;5.78;;;;;;;;;;4411773;32;317789;-91
2023/09/20 09:44:48;;;;;;;12.18;6.72;;;;;;;;;;4405064;32;316612;-84
2023/09/20 09:47:17;;;;;;;10.35;6.62;;;;;;;;;;4413716;32;318137;-85
2023/09/20 09:49:45;;;;;;;10.48;6.22;;;;;;;;;;4399885;32;317683;-84
2023/09/20 09:52:13;;;;;;;14.13;8.15;;;;;;;;;;4414372;32;317837;-85
2023/09/20 09:54:40;;;;;;;13.80;7.50;;;;;;;;;;4404806;32;318082;-87
2023/09/20 09:57:08;;;;;;;16.45;6.93;;;;;;;;;;4415538;32;317784;-86
2023/09/20 09:59:39;;;;;;;13.60;8.07;;;;;;;;;;4404538;32;317891;-91
2023/09/20 10:02:15;;;;;;;12.50;6.70;;;;;;;;;;4392073;32;317834;-91
2023/09/20 10:04:44;;;;;;;14.13;7.10;;;;;;;;;;4402702;32;317862;-87
2023/09/20 10:07:16;;;;;;;10.88;6.82;;;;;;;;;;4411591;32;317699;-88
2023/09/20 10:09:48;;;;;;;9.38;6.78;;;;;;;;;;4403315;32;318472;-88
2023/09/20 10:12:17;;;;;;;14.52;6.43;;;;;;;;;;4410943;32;316779;-86
2023/09/20 10:14:46;;;;;;;13.77;7.32;;;;;;;;;;4405170;32;318056;-89
2023/09/20 10:17:20;;;;;;;17.08;7.55;;;;;;;;;;4414499;32;317792;-90
2023/09/20 10:19:50;;;;;;;10.10;6.07;;;;;;;;;;4402255;32;317806;-89
2023/09/20 10:22:21;;;;;;;9.77;6.62;;;;;;;;;;4414084;32;316379;-90
2023/09/20 10:24:53;;;;;;;11.18;7.00;;;;;;;;;;4404035;32;317186;-90
2023/09/20 10:27:22;;;;;;;14.07;7.03;;;;;;;;;;4413687;32;340858;-88
2023/09/20 10:30:05;;;;;;;9.98;7.30;;;;;;;;;;4401824;32;317658;-89
2023/09/20 10:32:34;;;;;;;10.25;7.00;;;;;;;;;;4402348;32;316845;-89
2023/09/20 10:35:19;;;;;;;14.90;7.32;;;;;;;;;;4412936;32;317943;-85
2023/09/20 10:37:59;;;;;;;9.63;6.80;;;;;;;;;;4401854;32;317976;-88
2023/09/20 10:41:00;;;;;;;10.02;6.82;;;;;;;;;;4413280;32;316768;-86
2023/09/20 10:43:47;;;;;;;13.40;8.05;;;;;;;;;;4411319;32;417867;-90
2023/09/20 10:46:18;;;;;;;19.20;8.35;;;;;;;;;;4401059;32;418079;-89
2023/09/20 10:48:50;;;;;;;20.85;9.55;;;;;;;;;;4402734;32;317870;-90
2023/09/20 10:51:49;;;;;;;18.55;8.65;;;;;;;;;;4411894;32;334907;-87
2023/09/20 10:54:25;;;;;;;14.90;7.35;;;;;;;;;;4399030;32;419792;-89
2023/09/20 10:57:07;;;;;;;12.80;7.53;;;;;;;;;;4403581;32;317910;-91
2023/09/20 10:59:36;;;;;;;11.40;6.87;;;;;;;;;;4402857;32;317632;-89
2023/09/20 11:02:16;;;;;;;14.30;6.80;;;;;;;;;;4410879;32;317708;-89
2023/09/20 11:04:46;;;;;;;15.75;8.00;;;;;;;;;;4403256;32;318086;-88
2023/09/20 11:07:14;;;;;;;14.82;7.57;;;;;;;;;;4414030;32;317097;-88
2023/09/20 11:09:42;;;;;;;15.13;7.82;;;;;;;;;;4402447;32;317631;-90
2023/09/20 11:12:11;;;;;;;11.77;8.05;;;;;;;;;;4410197;32;317737;-90
2023/09/20 11:14:44;;;;;;;9.65;7.68;;;;;;;;;;4404254;32;317607;-90
2023/09/20 11:17:16;;;;;;;22.55;8.18;;;;;;;;;;4413396;32;346646;-89
2023/09/20 11:19:44;;;;;;;16.05;7.90;;;;;;;;;;4403883;32;317643;-91
2023/09/20 11:22:11;;;;;;;16.25;6.35;;;;;;;;;;4412223;32;317821;-91
2023/09/20 11:24:42;;;;;;;25.47;7.63;;;;;;;;;;4400724;32;317907;-88
2023/09/20 11:27:11;;;;;;;14.93;8.15;;;;;;;;;;4414479;32;317840;-89
2023/09/20 11:29:43;;;;;;;23.23;8.60;;;;;;;;;;4401886;32;317633;-89
2023/09/20 11:32:11;;;;;;;14.85;9.93;;;;;;;;;;4413978;32;317764;-88
2023/09/20 11:34:48;;;;;;;25.35;8.40;;;;;;;;;;4402304;32;318476;-89
2023/09/20 11:37:17;;;;;;;19.58;7.80;;;;;;;;;;4412840;32;317959;-90
2023/09/20 11:39:46;;;;;;;14.40;7.90;;;;;;;;;;4400654;32;318000;-91
2023/09/20 11:42:24;;;;;;;11.63;6.75;;;;;;;;;;4412181;32;317824;-89
2023/09/20 11:44:56;;;;;;;11.30;7.57;;;;;;;;;;4402299;32;349224;-85
2023/09/20 11:47:24;;;;;;;10.82;5.70;;;;;;;;;;4413425;32;317709;-90
2023/09/20 11:49:53;;;;;;;14.55;7.80;;;;;;;;;;4398736;32;317832;-90
2023/09/20 11:52:22;;;;;;;15.13;7.25;;;;;;;;;;4413793;32;317754;-87
2023/09/20 11:54:49;;;;;;;16.23;6.50;;;;;;;;;;4401699;32;317637;-89
2023/09/20 11:57:17;;;;;;;15.95;6.82;;;;;;;;;;4409280;32;317816;-90
2023/09/20 11:59:47;;;;;;;16.37;6.72;;;;;;;;;;4398782;32;317584;-89
2023/09/20 12:02:14;;;;;;;14.18;6.78;;;;;;;;;;4410521;32;317715;-89
2023/09/20 12:04:43;;;;;;;19.87;6.75;;;;;;;;;;4402556;32;318056;-89
2023/09/20 12:07:11;;;;;;;8.55;5.78;;;;;;;;;;4413251;32;317840;-89
2023/09/20 12:09:39;;;;;;;13.95;6.53;;;;;;;;;;4402817;32;317791;-84
2023/09/20 12:12:06;;;;;;;11.73;5.60;;;;;;;;;;4406872;32;317797;-85
2023/09/20 12:14:34;;;;;;;12.13;6.65;;;;;;;;;;4402013;32;317904;-86
2023/09/20 12:17:02;;;;;;;13.80;6.60;;;;;;;;;;4411352;32;318069;-86
2023/09/20 12:19:29;;;;;;;18.58;6.68;;;;;;;;;;4412055;32;317939;-87
2023/09/20 12:21:57;;;;;;;22.05;6.90;;;;;;;;;;4399924;32;317974;-87
2023/09/20 12:24:26;;;;;;;12.23;6.10;;;;;;;;;;4412339;32;317606;-83
2023/09/20 12:26:55;;;;;;;14.32;6.15;;;;;;;;;;4401188;32;351617;-86
2023/09/20 12:29:23;;;;;;;18.65;6.65;;;;;;;;;;4412276;32;317874;-85
2023/09/20 12:31:50;;;;;;;18.75;5.62;;;;;;;;;;4397208;32;317849;-84
2023/09/20 12:34:17;;;;;;;8.23;5.47;;;;;;;;;;4411555;32;317809;-83
2023/09/20 12:36:46;;;;;;;15.95;6.35;;;;;;;;;;4403768;32;316791;-85
2023/09/20 12:39:14;;;;;;;10.73;5.03;;;;;;;;;;4420057;32;317507;-88
2023/09/20 12:41:42;;;;;;;10.52;5.62;;;;;;;;;;4405830;32;317875;-88
2023/09/20 12:44:11;;;;;;;17.40;6.78;;;;;;;;;;4414092;32;317877;-88
2023/09/20 12:46:39;;;;;;;19.15;7.15;;;;;;;;;;4405843;32;318050;-87
2023/09/20 12:49:06;;;;;;;7.78;4.85;;;;;;;;;;4414622;32;317765;-86
2023/09/20 12:51:34;;;;;;;11.32;5.87;;;;;;;;;;4404933;32;316591;-83
2023/09/20 12:54:04;;;;;;;9.95;5.37;;;;;;;;;;4411487;32;337210;-86
2023/09/20 12:56:31;;;;;;;13.60;5.68;;;;;;;;;;4415685;32;316708;-86
2023/09/20 12:59:00;;;;;;;13.68;5.20;;;;;;;;;;4401970;32;416985;-88
2023/09/20 13:01:28;;;;;;;11.35;5.22;;;;;;;;;;4414864;32;317681;-85
2023/09/20 13:03:55;;;;;;;10.85;6.00;;;;;;;;;;4399843;32;345477;-87
2023/09/20 13:06:24;;;;;;;8.52;5.25;;;;;;;;;;4416342;32;318086;-86
2023/09/20 13:08:52;;;;;;;15.65;5.57;;;;;;;;;;4406105;32;317022;-83
2023/09/20 13:11:19;;;;;;;12.10;5.25;;;;;;;;;;4415352;32;317794;-88
2023/09/20 13:13:47;;;;;;;12.80;5.25;;;;;;;;;;4400975;32;317661;-89
2023/09/20 13:16:17;;;;;;;15.35;5.68;;;;;;;;;;4415581;32;317722;-84
2023/09/20 13:18:44;;;;;;;13.80;5.90;;;;;;;;;;4405968;32;317639;-85
2023/09/20 13:21:12;;;;;;;16.37;5.50;;;;;;;;;;4416051;32;317607;-88
2023/09/20 13:23:39;;;;;;;16.52;5.85;;;;;;;;;;4404295;32;341105;-88
2023/09/20 13:26:08;;;;;;;11.75;5.20;;;;;;;;;;4412704;32;318109;-90
2023/09/20 13:28:36;;;;;;;14.23;5.78;;;;;;;;;;4402323;32;318062;-88
2023/09/20 13:31:03;;;;;;;16.98;6.15;;;;;;;;;;4414616;32;317629;-88
2023/09/20 13:33:32;;;;;;;11.80;5.03;;;;;;;;;;4414059;32;317936;-87
2023/09/20 13:35:59;;;;;;;10.30;4.37;;;;;;;;;;4399623;32;417538;-88
2023/09/20 13:38:26;;;;;;;12.02;4.40;;;;;;;;;;4414351;32;317723;-89
2023/09/20 13:40:55;;;;;;;10.05;5.68;;;;;;;;;;4405027;32;317787;-87
2023/09/20 13:43:22;;;;;;;16.73;5.82;;;;;;;;;;4415237;32;317873;-86
2023/09/20 13:45:53;;;;;;;8.18;4.80;;;;;;;;;;4402805;32;317724;-84
2023/09/20 13:48:20;;;;;;;9.82;5.03;;;;;;;;;;4414915;32;316532;-88
2023/09/20 13:50:49;;;;;;;9.13;5.03;;;;;;;;;;4401101;32;316602;-87
2023/09/20 13:53:17;;;;;;;14.60;5.40;;;;;;;;;;4413094;32;317060;-88
2023/09/20 13:55:46;;;;;;;9.85;5.80;;;;;;;;;;4402001;32;317643;-87
2023/09/20 13:58:15;;;;;;;10.88;4.68;;;;;;;;;;4408705;32;316490;-87
2023/09/20 14:00:43;;;;;;;12.52;4.55;;;;;;;;;;4404507;32;317639;-87
2023/09/20 14:03:12;;;;;;;16.15;5.75;;;;;;;;;;4413722;32;317708;-87
2023/09/20 14:05:40;;;;;;;15.25;5.18;;;;;;;;;;4404191;32;317847;-86
2023/09/20 14:08:09;;;;;;;20.48;4.43;;;;;;;;;;4411014;32;317788;-87
2023/09/20 14:10:40;;;;;;;11.10;4.95;;;;;;;;;;4403016;32;317836;-87
2023/09/20 14:13:07;;;;;;;9.75;4.65;;;;;;;;;;4413325;32;317677;-87
2023/09/20 14:15:35;;;;;;;9.32;4.60;;;;;;;;;;4402963;32;316625;-88
2023/09/20 14:18:04;;;;;;;8.82;4.90;;;;;;;;;;4411714;32;316768;-87
2023/09/20 14:20:32;;;;;;;20.00;4.55;;;;;;;;;;4402491;32;316676;-87
2023/09/20 14:23:00;;;;;;;13.85;5.20;;;;;;;;;;4412023;32;317731;-87
2023/09/20 14:25:30;;;;;;;8.85;4.80;;;;;;;;;;4413347;32;317596;-87
2023/09/20 14:27:58;;;;;;;9.07;4.70;;;;;;;;;;4398293;32;387361;-87
2023/09/20 14:30:25;;;;;;;21.85;5.72;;;;;;;;;;4412807;32;323458;-87
2023/09/20 14:32:54;;;;;;;8.95;4.07;;;;;;;;;;4403731;32;317734;-87
2023/09/20 14:35:22;;;;;;;15.57;5.55;;;;;;;;;;4412002;32;317089;-87
2023/09/20 14:37:51;;;;;;;13.43;4.68;;;;;;;;;;4399542;32;317770;-87
2023/09/20 14:40:18;;;;;;;10.10;5.10;;;;;;;;;;4413927;32;316443;-87
2023/09/20 14:42:48;;;;;;;12.35;5.15;;;;;;;;;;4403067;32;317805;-88
2023/09/20 14:45:17;;;;;;;13.48;5.80;;;;;;;;;;4413619;32;317589;-87
2023/09/20 14:47:45;;;;;;;13.65;5.87;;;;;;;;;;4399908;32;317847;-88
2023/09/20 14:50:14;;;;;;;20.52;5.85;;;;;;;;;;4410415;32;317494;-87
2023/09/20 14:52:42;;;;;;;13.95;5.32;;;;;;;;;;4402322;32;336317;-87
2023/09/20 14:55:12;;;;;;;12.73;5.85;;;;;;;;;;4412591;32;317707;-87
2023/09/20 14:57:41;;;;;;;11.27;5.00;;;;;;;;;;4402090;32;317615;-87
2023/09/20 15:00:16;;;;;;;8.73;5.18;;;;;;;;;;4411027;32;317990;-87
2023/09/20 15:02:43;;;;;;;11.90;4.37;;;;;;;;;;4399130;32;331233;-88
2023/09/20 15:05:13;;;;;;;11.88;5.00;;;;;;;;;;4411566;32;317822;-87
2023/09/20 15:07:43;;;;;;;15.48;4.87;;;;;;;;;;4401865;32;317710;-87
2023/09/20 15:10:15;;;;;;;11.05;4.37;;;;;;;;;;4412567;32;317562;-87
2023/09/20 15:12:47;;;;;;;12.77;5.30;;;;;;;;;;4400795;32;317470;-88
2023/09/20 15:15:17;;;;;;;10.32;4.80;;;;;;;;;;4410136;32;317558;-87